EPZG/IEG METAR and TAF weather

Enter ICAO airport designator
Station Type Date Time Source
EPZG METAR 2020/07/12 05:30 UTC NOAA

EPZG 120530Z VRB01KT CAVOK 14/11 Q1025


Station Type Date Time Source
EPZG Decoded METAR 2020/07/12 05:30 UTC NOAA

Zielona Gora, Poland (EPZG) 51-56N 015-32E 192M
Jul 12, 2020 - 01:30 AM EDT / 2020.07.12 0530 UTC
Wind: Variable at 1 MPH (1 KT):0
Visibility: greater than 7 mile(s):0
Temperature: 57 F (14 C)
Dew Point: 51 F (11 C)
Relative Humidity: 82%
Pressure (altimeter): 30.27 in. Hg (1025 hPa)
ob: EPZG 120530Z VRB01KT CAVOK 14/11 Q1025
cycle: 5

Station Type Date Time Source
EPZG TAF 2012/06/28 21:49 UTC NOAA

TAF EPZG 282000Z 2821/2906 VRB02KT CAVOK
TEMPO 2823/2904 5000 BR PROB30 2900/2904 1500 BR BKN005

Example: see airport list